sensor_id;sensor_type;location;lat;lon;timestamp;temperature;humidity
3275;DHT22;1649;53.672;10.064;2023-02-15T00:01:09;3.80;99.90
3275;DHT22;1649;53.672;10.064;2023-02-15T00:03:35;3.80;99.90
3275;DHT22;1649;53.672;10.064;2023-02-15T00:06:01;3.80;99.90
3275;DHT22;1649;53.672;10.064;2023-02-15T00:08:27;3.80;99.90
3275;DHT22;1649;53.672;10.064;2023-02-15T00:10:52;3.80;99.90
3275;DHT22;1649;53.672;10.064;2023-02-15T00:13:18;3.90;99.90
3275;DHT22;1649;53.672;10.064;2023-02-15T00:15:44;3.90;99.90
3275;DHT22;1649;53.672;10.064;2023-02-15T00:18:09;3.90;99.90
3275;DHT22;1649;53.672;10.064;2023-02-15T00:20:35;3.90;99.90
3275;DHT22;1649;53.672;10.064;2023-02-15T00:23:00;3.90;99.90
3275;DHT22;1649;53.672;10.064;2023-02-15T00:25:26;3.90;99.90
3275;DHT22;1649;53.672;10.064;2023-02-15T00:27:51;3.90;99.90
3275;DHT22;1649;53.672;10.064;2023-02-15T00:30:17;3.90;99.90
3275;DHT22;1649;53.672;10.064;2023-02-15T00:32:42;3.90;99.90
3275;DHT22;1649;53.672;10.064;2023-02-15T00:35:08;3.90;99.90
3275;DHT22;1649;53.672;10.064;2023-02-15T00:37:35;3.90;99.90
3275;DHT22;1649;53.672;10.064;2023-02-15T00:40:00;3.90;99.90
3275;DHT22;1649;53.672;10.064;2023-02-15T00:42:26;3.90;99.90
3275;DHT22;1649;53.672;10.064;2023-02-15T00:44:51;3.90;99.90
3275;DHT22;1649;53.672;10.064;2023-02-15T00:47:17;4.00;99.90
3275;DHT22;1649;53.672;10.064;2023-02-15T00:49:42;4.00;99.90
3275;DHT22;1649;53.672;10.064;2023-02-15T00:52:08;4.00;99.90
3275;DHT22;1649;53.672;10.064;2023-02-15T00:54:33;4.00;99.90
3275;DHT22;1649;53.672;10.064;2023-02-15T00:57:00;4.00;99.90
3275;DHT22;1649;53.672;10.064;2023-02-15T00:59:25;4.00;99.90
3275;DHT22;1649;53.672;10.064;2023-02-15T01:01:51;4.00;99.90
3275;DHT22;1649;53.672;10.064;2023-02-15T01:04:16;4.00;99.90
3275;DHT22;1649;53.672;10.064;2023-02-15T01:06:42;4.00;99.90
3275;DHT22;1649;53.672;10.064;2023-02-15T01:09:07;4.00;99.90
3275;DHT22;1649;53.672;10.064;2023-02-15T01:11:33;4.00;99.90
3275;DHT22;1649;53.672;10.064;2023-02-15T01:13:58;4.00;99.90
3275;DHT22;1649;53.672;10.064;2023-02-15T01:16:26;4.00;99.90
3275;DHT22;1649;53.672;10.064;2023-02-15T01:18:52;4.00;99.90
3275;DHT22;1649;53.672;10.064;2023-02-15T01:21:23;4.10;99.90
3275;DHT22;1649;53.672;10.064;2023-02-15T01:23:49;4.00;99.90
3275;DHT22;1649;53.672;10.064;2023-02-15T01:26:15;4.00;99.90
3275;DHT22;1649;53.672;10.064;2023-02-15T01:28:41;4.00;99.90
3275;DHT22;1649;53.672;10.064;2023-02-15T01:31:12;4.00;99.90
3275;DHT22;1649;53.672;10.064;2023-02-15T01:33:38;4.10;99.90
3275;DHT22;1649;53.672;10.064;2023-02-15T01:36:04;4.00;99.90
3275;DHT22;1649;53.672;10.064;2023-02-15T01:38:29;4.10;99.90
3275;DHT22;1649;53.672;10.064;2023-02-15T01:40:55;4.10;99.90
3275;DHT22;1649;53.672;10.064;2023-02-15T01:43:49;4.10;99.90
3275;DHT22;1649;53.672;10.064;2023-02-15T01:46:16;4.10;99.90
3275;DHT22;1649;53.672;10.064;2023-02-15T01:48:48;4.10;99.90
3275;DHT22;1649;53.672;10.064;2023-02-15T01:51:18;4.00;99.90
3275;DHT22;1649;53.672;10.064;2023-02-15T01:54:12;4.00;99.90
3275;DHT22;1649;53.672;10.064;2023-02-15T01:56:41;4.10;99.90
3275;DHT22;1649;53.672;10.064;2023-02-15T01:59:11;4.10;99.90
3275;DHT22;1649;53.672;10.064;2023-02-15T02:01:39;4.10;99.90
3275;DHT22;1649;53.672;10.064;2023-02-15T02:06:32;4.00;99.90
3275;DHT22;1649;53.672;10.064;2023-02-15T02:08:58;4.10;99.90
3275;DHT22;1649;53.672;10.064;2023-02-15T02:11:24;4.10;99.90
3275;DHT22;1649;53.672;10.064;2023-02-15T02:13:50;4.10;99.90
3275;DHT22;1649;53.672;10.064;2023-02-15T02:16:27;4.10;99.90
3275;DHT22;1649;53.672;10.064;2023-02-15T02:22:33;4.10;99.90
3275;DHT22;1649;53.672;10.064;2023-02-15T02:25:30;4.10;99.90
3275;DHT22;1649;53.672;10.064;2023-02-15T02:31:31;4.00;99.90
3275;DHT22;1649;53.672;10.064;2023-02-15T02:34:24;4.00;99.90
3275;DHT22;1649;53.672;10.064;2023-02-15T02:42:54;4.00;99.90
3275;DHT22;1649;53.672;10.064;2023-02-15T02:48:03;4.00;99.90
3275;DHT22;1649;53.672;10.064;2023-02-15T02:50:30;3.90;99.90
3275;DHT22;1649;53.672;10.064;2023-02-15T02:52:58;3.90;99.90
3275;DHT22;1649;53.672;10.064;2023-02-15T02:55:48;3.90;99.90
3275;DHT22;1649;53.672;10.064;2023-02-15T02:58:25;3.90;99.90
3275;DHT22;1649;53.672;10.064;2023-02-15T03:00:57;3.90;99.90
3275;DHT22;1649;53.672;10.064;2023-02-15T03:03:30;3.90;99.90
3275;DHT22;1649;53.672;10.064;2023-02-15T03:06:00;3.90;99.90
3275;DHT22;1649;53.672;10.064;2023-02-15T03:08:35;3.90;99.90
3275;DHT22;1649;53.672;10.064;2023-02-15T03:11:04;3.90;99.90
3275;DHT22;1649;53.672;10.064;2023-02-15T03:13:30;3.90;99.90
3275;DHT22;1649;53.672;10.064;2023-02-15T03:15:57;3.90;99.90
3275;DHT22;1649;53.672;10.064;2023-02-15T03:18:46;3.90;99.90
3275;DHT22;1649;53.672;10.064;2023-02-15T03:21:20;3.90;99.90
3275;DHT22;1649;53.672;10.064;2023-02-15T03:23:54;3.90;99.90
3275;DHT22;1649;53.672;10.064;2023-02-15T03:26:21;3.90;99.90
3275;DHT22;1649;53.672;10.064;2023-02-15T03:28:50;3.90;99.90
3275;DHT22;1649;53.672;10.064;2023-02-15T03:31:20;3.90;99.90
3275;DHT22;1649;53.672;10.064;2023-02-15T03:33:55;3.90;99.90
3275;DHT22;1649;53.672;10.064;2023-02-15T03:36:31;3.80;99.90
3275;DHT22;1649;53.672;10.064;2023-02-15T03:41:30;3.80;99.90
3275;DHT22;1649;53.672;10.064;2023-02-15T03:44:00;3.80;99.90
3275;DHT22;1649;53.672;10.064;2023-02-15T03:46:48;3.80;99.90
3275;DHT22;1649;53.672;10.064;2023-02-15T03:49:20;3.80;99.90
3275;DHT22;1649;53.672;10.064;2023-02-15T03:51:49;3.80;99.90
3275;DHT22;1649;53.672;10.064;2023-02-15T03:54:22;3.70;99.90
3275;DHT22;1649;53.672;10.064;2023-02-15T04:00:17;3.70;99.90
3275;DHT22;1649;53.672;10.064;2023-02-15T04:03:11;3.70;99.90
3275;DHT22;1649;53.672;10.064;2023-02-15T04:05:38;3.60;99.90
3275;DHT22;1649;53.672;10.064;2023-02-15T04:08:03;3.60;99.90
3275;DHT22;1649;53.672;10.064;2023-02-15T04:10:29;3.70;99.90
3275;DHT22;1649;53.672;10.064;2023-02-15T04:13:13;3.60;99.90
3275;DHT22;1649;53.672;10.064;2023-02-15T04:15:39;3.60;99.90
3275;DHT22;1649;53.672;10.064;2023-02-15T04:18:23;3.60;99.90
3275;DHT22;1649;53.672;10.064;2023-02-15T04:21:07;3.70;99.90
3275;DHT22;1649;53.672;10.064;2023-02-15T04:23:51;3.70;99.90
3275;DHT22;1649;53.672;10.064;2023-02-15T04:26:35;3.70;99.90
3275;DHT22;1649;53.672;10.064;2023-02-15T04:29:00;3.70;99.90
3275;DHT22;1649;53.672;10.064;2023-02-15T04:31:26;3.70;99.90
3275;DHT22;1649;53.672;10.064;2023-02-15T04:33:51;3.70;99.90
3275;DHT22;1649;53.672;10.064;2023-02-15T04:36:17;3.80;99.90
3275;DHT22;1649;53.672;10.064;2023-02-15T04:38:42;3.80;99.90
3275;DHT22;1649;53.672;10.064;2023-02-15T04:41:08;3.80;99.90
3275;DHT22;1649;53.672;10.064;2023-02-15T04:43:35;3.80;99.90
3275;DHT22;1649;53.672;10.064;2023-02-15T04:46:01;3.80;99.90
3275;DHT22;1649;53.672;10.064;2023-02-15T04:48:27;3.80;99.90
3275;DHT22;1649;53.672;10.064;2023-02-15T04:50:52;3.80;99.90
3275;DHT22;1649;53.672;10.064;2023-02-15T04:53:18;3.70;99.90
3275;DHT22;1649;53.672;10.064;2023-02-15T04:55:43;3.70;99.90
3275;DHT22;1649;53.672;10.064;2023-02-15T04:58:09;3.80;99.90
3275;DHT22;1649;53.672;10.064;2023-02-15T05:00:34;3.80;99.90
3275;DHT22;1649;53.672;10.064;2023-02-15T05:03:00;3.80;99.90
3275;DHT22;1649;53.672;10.064;2023-02-15T05:05:25;3.80;99.90
3275;DHT22;1649;53.672;10.064;2023-02-15T05:07:51;3.80;99.90
3275;DHT22;1649;53.672;10.064;2023-02-15T05:10:16;3.80;99.90
3275;DHT22;1649;53.672;10.064;2023-02-15T05:12:42;3.80;99.90
3275;DHT22;1649;53.672;10.064;2023-02-15T05:15:08;3.80;99.90
3275;DHT22;1649;53.672;10.064;2023-02-15T05:17:33;3.80;99.90
3275;DHT22;1649;53.672;10.064;2023-02-15T05:19:59;3.80;99.90
3275;DHT22;1649;53.672;10.064;2023-02-15T05:22:25;3.80;99.90
3275;DHT22;1649;53.672;10.064;2023-02-15T05:24:50;3.90;99.90
3275;DHT22;1649;53.672;10.064;2023-02-15T05:27:34;3.80;99.90
3275;DHT22;1649;53.672;10.064;2023-02-15T05:30:18;3.80;99.90
3275;DHT22;1649;53.672;10.064;2023-02-15T05:32:44;3.80;99.90
3275;DHT22;1649;53.672;10.064;2023-02-15T05:35:14;3.80;99.90
3275;DHT22;1649;53.672;10.064;2023-02-15T05:37:40;3.80;99.90
3275;DHT22;1649;53.672;10.064;2023-02-15T05:40:06;3.70;99.90
3275;DHT22;1649;53.672;10.064;2023-02-15T05:42:32;3.60;99.90
3275;DHT22;1649;53.672;10.064;2023-02-15T05:44:57;3.70;99.90
3275;DHT22;1649;53.672;10.064;2023-02-15T05:47:23;3.60;99.90
3275;DHT22;1649;53.672;10.064;2023-02-15T05:49:48;3.60;99.90
3275;DHT22;1649;53.672;10.064;2023-02-15T05:52:14;3.60;99.90
3275;DHT22;1649;53.672;10.064;2023-02-15T05:54:39;3.50;99.90
3275;DHT22;1649;53.672;10.064;2023-02-15T05:57:05;3.50;99.90
3275;DHT22;1649;53.672;10.064;2023-02-15T05:59:30;3.40;99.90
3275;DHT22;1649;53.672;10.064;2023-02-15T06:01:56;3.50;99.90
3275;DHT22;1649;53.672;10.064;2023-02-15T06:04:21;3.50;99.90
3275;DHT22;1649;53.672;10.064;2023-02-15T06:06:47;3.50;99.90
3275;DHT22;1649;53.672;10.064;2023-02-15T06:09:13;3.50;99.90
3275;DHT22;1649;53.672;10.064;2023-02-15T06:11:39;3.50;99.90
3275;DHT22;1649;53.672;10.064;2023-02-15T06:14:04;3.50;99.90
3275;DHT22;1649;53.672;10.064;2023-02-15T06:16:30;3.40;99.90
3275;DHT22;1649;53.672;10.064;2023-02-15T06:18:56;3.40;99.90
3275;DHT22;1649;53.672;10.064;2023-02-15T06:21:21;3.50;99.90
3275;DHT22;1649;53.672;10.064;2023-02-15T06:23:47;3.40;99.90
3275;DHT22;1649;53.672;10.064;2023-02-15T06:26:12;3.30;99.90
3275;DHT22;1649;53.672;10.064;2023-02-15T06:28:38;3.30;99.90
3275;DHT22;1649;53.672;10.064;2023-02-15T06:31:04;3.20;99.90
3275;DHT22;1649;53.672;10.064;2023-02-15T06:33:30;3.20;99.90
3275;DHT22;1649;53.672;10.064;2023-02-15T06:35:58;3.10;99.90
3275;DHT22;1649;53.672;10.064;2023-02-15T06:38:23;3.20;99.90
3275;DHT22;1649;53.672;10.064;2023-02-15T06:40:49;3.30;99.90
3275;DHT22;1649;53.672;10.064;2023-02-15T06:43:14;3.30;99.90
3275;DHT22;1649;53.672;10.064;2023-02-15T06:45:41;3.30;99.90
3275;DHT22;1649;53.672;10.064;2023-02-15T06:48:06;3.30;99.90
3275;DHT22;1649;53.672;10.064;2023-02-15T06:50:33;3.30;99.90
3275;DHT22;1649;53.672;10.064;2023-02-15T06:52:59;3.30;99.90
3275;DHT22;1649;53.672;10.064;2023-02-15T06:55:25;3.20;99.90
3275;DHT22;1649;53.672;10.064;2023-02-15T06:57:51;3.20;99.90
3275;DHT22;1649;53.672;10.064;2023-02-15T07:00:17;3.10;99.90
3275;DHT22;1649;53.672;10.064;2023-02-15T07:02:44;3.10;99.90
3275;DHT22;1649;53.672;10.064;2023-02-15T07:05:09;3.10;99.90
3275;DHT22;1649;53.672;10.064;2023-02-15T07:07:35;3.10;99.90
3275;DHT22;1649;53.672;10.064;2023-02-15T07:10:00;3.00;99.90
3275;DHT22;1649;53.672;10.064;2023-02-15T07:12:26;3.10;99.90
3275;DHT22;1649;53.672;10.064;2023-02-15T07:15:08;3.00;99.90
3275;DHT22;1649;53.672;10.064;2023-02-15T07:17:34;3.10;99.90
3275;DHT22;1649;53.672;10.064;2023-02-15T07:20:01;3.00;99.90
3275;DHT22;1649;53.672;10.064;2023-02-15T07:22:26;3.00;99.90
3275;DHT22;1649;53.672;10.064;2023-02-15T07:24:53;3.00;99.90
3275;DHT22;1649;53.672;10.064;2023-02-15T07:27:20;3.00;99.90
3275;DHT22;1649;53.672;10.064;2023-02-15T07:29:46;3.00;99.90
3275;DHT22;1649;53.672;10.064;2023-02-15T07:32:11;2.90;99.90
3275;DHT22;1649;53.672;10.064;2023-02-15T07:34:37;2.90;99.90
3275;DHT22;1649;53.672;10.064;2023-02-15T07:37:02;2.90;99.90
3275;DHT22;1649;53.672;10.064;2023-02-15T07:39:29;2.80;99.90
3275;DHT22;1649;53.672;10.064;2023-02-15T07:41:55;2.80;99.90
3275;DHT22;1649;53.672;10.064;2023-02-15T07:44:20;2.90;99.90
3275;DHT22;1649;53.672;10.064;2023-02-15T07:46:46;2.90;99.90
3275;DHT22;1649;53.672;10.064;2023-02-15T07:49:11;2.90;99.90
3275;DHT22;1649;53.672;10.064;2023-02-15T07:51:37;2.80;99.90
3275;DHT22;1649;53.672;10.064;2023-02-15T07:54:02;2.70;99.90
3275;DHT22;1649;53.672;10.064;2023-02-15T07:56:28;2.80;99.90
3275;DHT22;1649;53.672;10.064;2023-02-15T07:58:53;2.80;99.90
3275;DHT22;1649;53.672;10.064;2023-02-15T08:01:29;2.80;99.90
3275;DHT22;1649;53.672;10.064;2023-02-15T08:03:54;2.90;99.90
3275;DHT22;1649;53.672;10.064;2023-02-15T08:06:21;2.90;99.90
3275;DHT22;1649;53.672;10.064;2023-02-15T08:08:47;2.90;99.90
3275;DHT22;1649;53.672;10.064;2023-02-15T08:11:21;2.80;99.90
3275;DHT22;1649;53.672;10.064;2023-02-15T08:16:37;2.80;99.90
3275;DHT22;1649;53.672;10.064;2023-02-15T08:21:31;2.90;99.90
3275;DHT22;1649;53.672;10.064;2023-02-15T08:23:57;3.00;99.90
3275;DHT22;1649;53.672;10.064;2023-02-15T08:26:23;3.00;99.90
3275;DHT22;1649;53.672;10.064;2023-02-15T08:28:50;3.00;99.90
3275;DHT22;1649;53.672;10.064;2023-02-15T08:31:16;3.00;99.90
3275;DHT22;1649;53.672;10.064;2023-02-15T08:33:44;3.00;99.90
3275;DHT22;1649;53.672;10.064;2023-02-15T08:36:12;3.00;99.90
3275;DHT22;1649;53.672;10.064;2023-02-15T08:38:38;3.10;99.90
3275;DHT22;1649;53.672;10.064;2023-02-15T08:41:21;3.10;99.90
3275;DHT22;1649;53.672;10.064;2023-02-15T08:43:52;3.20;99.90
3275;DHT22;1649;53.672;10.064;2023-02-15T08:46:19;3.30;99.90
3275;DHT22;1649;53.672;10.064;2023-02-15T08:48:45;3.20;99.90
3275;DHT22;1649;53.672;10.064;2023-02-15T08:51:13;3.20;99.90
3275;DHT22;1649;53.672;10.064;2023-02-15T08:53:41;3.20;99.90
3275;DHT22;1649;53.672;10.064;2023-02-15T08:56:07;3.10;99.90
3275;DHT22;1649;53.672;10.064;2023-02-15T08:58:33;3.10;99.90
3275;DHT22;1649;53.672;10.064;2023-02-15T09:00:59;2.90;99.90
3275;DHT22;1649;53.672;10.064;2023-02-15T09:03:24;3.10;99.90
3275;DHT22;1649;53.672;10.064;2023-02-15T09:05:50;3.10;99.90
3275;DHT22;1649;53.672;10.064;2023-02-15T09:08:16;3.30;99.90
3275;DHT22;1649;53.672;10.064;2023-02-15T09:10:41;3.30;99.90
3275;DHT22;1649;53.672;10.064;2023-02-15T09:13:07;3.20;99.90
3275;DHT22;1649;53.672;10.064;2023-02-15T09:15:33;3.00;99.90
3275;DHT22;1649;53.672;10.064;2023-02-15T09:17:58;3.00;99.90
3275;DHT22;1649;53.672;10.064;2023-02-15T09:20:31;2.90;99.90
3275;DHT22;1649;53.672;10.064;2023-02-15T09:22:57;3.00;99.90
3275;DHT22;1649;53.672;10.064;2023-02-15T09:25:22;3.10;99.90
3275;DHT22;1649;53.672;10.064;2023-02-15T09:27:48;3.20;99.90
3275;DHT22;1649;53.672;10.064;2023-02-15T09:30:13;3.00;99.90
3275;DHT22;1649;53.672;10.064;2023-02-15T09:32:39;3.00;99.90
3275;DHT22;1649;53.672;10.064;2023-02-15T09:35:05;3.00;99.90
3275;DHT22;1649;53.672;10.064;2023-02-15T09:37:30;3.10;99.90
3275;DHT22;1649;53.672;10.064;2023-02-15T09:39:57;3.20;99.90
3275;DHT22;1649;53.672;10.064;2023-02-15T09:42:35;3.40;99.90
3275;DHT22;1649;53.672;10.064;2023-02-15T09:47:44;3.60;99.90
3275;DHT22;1649;53.672;10.064;2023-02-15T09:53:14;3.80;99.90
3275;DHT22;1649;53.672;10.064;2023-02-15T09:56:19;3.60;99.90
3275;DHT22;1649;53.672;10.064;2023-02-15T10:07:24;3.60;99.90
3275;DHT22;1649;53.672;10.064;2023-02-15T10:20:48;3.70;99.90
3275;DHT22;1649;53.672;10.064;2023-02-15T10:23:39;3.80;99.90
3275;DHT22;1649;53.672;10.064;2023-02-15T10:26:22;3.80;99.90
3275;DHT22;1649;53.672;10.064;2023-02-15T10:28:53;3.90;99.90
3275;DHT22;1649;53.672;10.064;2023-02-15T10:31:30;3.90;99.90
3275;DHT22;1649;53.672;10.064;2023-02-15T10:34:20;3.90;99.90
3275;DHT22;1649;53.672;10.064;2023-02-15T10:39:50;3.70;99.90
3275;DHT22;1649;53.672;10.064;2023-02-15T10:42:55;3.80;99.90
3275;DHT22;1649;53.672;10.064;2023-02-15T10:51:11;3.90;99.90
3275;DHT22;1649;53.672;10.064;2023-02-15T11:07:48;4.10;99.90
3275;DHT22;1649;53.672;10.064;2023-02-15T11:10:27;4.10;99.90
3275;DHT22;1649;53.672;10.064;2023-02-15T11:12:56;4.20;99.90
3275;DHT22;1649;53.672;10.064;2023-02-15T11:18:09;4.20;99.90
3275;DHT22;1649;53.672;10.064;2023-02-15T11:20:56;4.20;99.90
3275;DHT22;1649;53.672;10.064;2023-02-15T11:23:24;4.40;99.90
3275;DHT22;1649;53.672;10.064;2023-02-15T11:25:57;4.50;99.90
3275;DHT22;1649;53.672;10.064;2023-02-15T11:28:31;4.60;99.90
3275;DHT22;1649;53.672;10.064;2023-02-15T11:31:09;4.60;99.90
3275;DHT22;1649;53.672;10.064;2023-02-15T11:33:40;4.60;99.90
3275;DHT22;1649;53.672;10.064;2023-02-15T11:36:28;4.50;99.90
3275;DHT22;1649;53.672;10.064;2023-02-15T11:39:02;4.50;99.90
3275;DHT22;1649;53.672;10.064;2023-02-15T11:41:34;4.50;99.90
3275;DHT22;1649;53.672;10.064;2023-02-15T11:44:19;4.50;99.90
3275;DHT22;1649;53.672;10.064;2023-02-15T11:46:46;4.60;99.90
3275;DHT22;1649;53.672;10.064;2023-02-15T11:49:35;4.70;99.90
3275;DHT22;1649;53.672;10.064;2023-02-15T11:52:10;4.90;99.90
3275;DHT22;1649;53.672;10.064;2023-02-15T11:54:44;4.90;99.90
3275;DHT22;1649;53.672;10.064;2023-02-15T12:00:02;4.90;99.90
3275;DHT22;1649;53.672;10.064;2023-02-15T12:02:31;4.90;99.90
3275;DHT22;1649;53.672;10.064;2023-02-15T12:05:01;4.90;99.90
3275;DHT22;1649;53.672;10.064;2023-02-15T12:07:41;4.90;99.90
3275;DHT22;1649;53.672;10.064;2023-02-15T12:10:28;4.90;99.90
3275;DHT22;1649;53.672;10.064;2023-02-15T12:13:17;5.00;99.90
3275;DHT22;1649;53.672;10.064;2023-02-15T12:15:46;5.10;99.90
3275;DHT22;1649;53.672;10.064;2023-02-15T12:18:27;5.10;99.90
3275;DHT22;1649;53.672;10.064;2023-02-15T12:21:11;5.30;99.90
3275;DHT22;1649;53.672;10.064;2023-02-15T12:23:47;5.40;99.90
3275;DHT22;1649;53.672;10.064;2023-02-15T12:26:23;5.70;99.90
3275;DHT22;1649;53.672;10.064;2023-02-15T12:28:50;6.00;99.90
3275;DHT22;1649;53.672;10.064;2023-02-15T12:31:35;6.20;99.90
3275;DHT22;1649;53.672;10.064;2023-02-15T12:34:04;6.20;99.90
3275;DHT22;1649;53.672;10.064;2023-02-15T12:36:44;6.20;99.90
3275;DHT22;1649;53.672;10.064;2023-02-15T12:41:37;6.00;99.90
3275;DHT22;1649;53.672;10.064;2023-02-15T12:44:19;5.90;99.90
3275;DHT22;1649;53.672;10.064;2023-02-15T12:47:05;5.90;99.90
3275;DHT22;1649;53.672;10.064;2023-02-15T12:49:41;6.00;99.90
3275;DHT22;1649;53.672;10.064;2023-02-15T12:54:48;6.20;99.90
3275;DHT22;1649;53.672;10.064;2023-02-15T12:59:53;6.30;99.90
3275;DHT22;1649;53.672;10.064;2023-02-15T13:02:43;6.50;99.90
3275;DHT22;1649;53.672;10.064;2023-02-15T13:05:14;6.50;99.90
3275;DHT22;1649;53.672;10.064;2023-02-15T13:07:50;6.50;99.90
3275;DHT22;1649;53.672;10.064;2023-02-15T13:10:35;6.60;99.90
3275;DHT22;1649;53.672;10.064;2023-02-15T13:13:10;6.60;99.90
3275;DHT22;1649;53.672;10.064;2023-02-15T13:15:38;7.10;99.90
3275;DHT22;1649;53.672;10.064;2023-02-15T13:18:23;7.20;99.90
3275;DHT22;1649;53.672;10.064;2023-02-15T13:20:52;7.20;99.90
3275;DHT22;1649;53.672;10.064;2023-02-15T13:23:28;7.10;99.90
3275;DHT22;1649;53.672;10.064;2023-02-15T13:25:57;7.30;99.90
3275;DHT22;1649;53.672;10.064;2023-02-15T13:28:28;7.30;99.90
3275;DHT22;1649;53.672;10.064;2023-02-15T13:30:57;7.50;99.90
3275;DHT22;1649;53.672;10.064;2023-02-15T13:33:31;7.60;99.90
3275;DHT22;1649;53.672;10.064;2023-02-15T13:39:01;7.90;99.90
3275;DHT22;1649;53.672;10.064;2023-02-15T13:58:55;8.30;99.90
3275;DHT22;1649;53.672;10.064;2023-02-15T14:19:52;8.30;99.90
3275;DHT22;1649;53.672;10.064;2023-02-15T14:25:17;8.60;99.90
3275;DHT22;1649;53.672;10.064;2023-02-15T14:30:42;8.60;99.90
3275;DHT22;1649;53.672;10.064;2023-02-15T14:35:53;8.70;99.90
3275;DHT22;1649;53.672;10.064;2023-02-15T14:41:39;8.60;99.90
3275;DHT22;1649;53.672;10.064;2023-02-15T14:44:25;8.60;99.90
3275;DHT22;1649;53.672;10.064;2023-02-15T14:47:01;8.50;99.90
3275;DHT22;1649;53.672;10.064;2023-02-15T14:49:32;8.40;99.90
3275;DHT22;1649;53.672;10.064;2023-02-15T14:52:00;8.40;99.90
3275;DHT22;1649;53.672;10.064;2023-02-15T15:04:35;8.10;99.90
3275;DHT22;1649;53.672;10.064;2023-02-15T15:09:35;8.20;99.90
3275;DHT22;1649;53.672;10.064;2023-02-15T15:14:46;8.10;99.90
3275;DHT22;1649;53.672;10.064;2023-02-15T15:20:14;8.00;99.90
3275;DHT22;1649;53.672;10.064;2023-02-15T15:36:24;7.60;99.90
3275;DHT22;1649;53.672;10.064;2023-02-15T15:45:02;7.30;99.90
3275;DHT22;1649;53.672;10.064;2023-02-15T15:47:54;7.20;99.90
3275;DHT22;1649;53.672;10.064;2023-02-15T15:50:23;7.00;99.90
3275;DHT22;1649;53.672;10.064;2023-02-15T15:52:51;7.00;99.90
3275;DHT22;1649;53.672;10.064;2023-02-15T15:55:20;6.90;99.90
3275;DHT22;1649;53.672;10.064;2023-02-15T15:57:55;6.80;99.90
3275;DHT22;1649;53.672;10.064;2023-02-15T16:00:47;6.70;99.90
3275;DHT22;1649;53.672;10.064;2023-02-15T16:03:25;6.70;99.90
3275;DHT22;1649;53.672;10.064;2023-02-15T16:05:51;6.50;99.90
3275;DHT22;1649;53.672;10.064;2023-02-15T16:08:36;6.50;99.90
3275;DHT22;1649;53.672;10.064;2023-02-15T16:11:16;6.40;99.90
3275;DHT22;1649;53.672;10.064;2023-02-15T16:13:44;6.30;99.90
3275;DHT22;1649;53.672;10.064;2023-02-15T16:16:12;6.20;99.90
3275;DHT22;1649;53.672;10.064;2023-02-15T16:18:38;6.20;99.90
3275;DHT22;1649;53.672;10.064;2023-02-15T16:21:16;6.10;99.90
3275;DHT22;1649;53.672;10.064;2023-02-15T16:23:58;6.10;99.90
3275;DHT22;1649;53.672;10.064;2023-02-15T16:26:43;6.10;99.90
3275;DHT22;1649;53.672;10.064;2023-02-15T16:29:29;6.00;99.90
3275;DHT22;1649;53.672;10.064;2023-02-15T16:32:02;5.90;99.90
3275;DHT22;1649;53.672;10.064;2023-02-15T16:34:28;5.90;99.90
3275;DHT22;1649;53.672;10.064;2023-02-15T16:37:17;5.80;99.90
3275;DHT22;1649;53.672;10.064;2023-02-15T16:39:44;5.80;99.90
3275;DHT22;1649;53.672;10.064;2023-02-15T16:42:11;5.70;99.90
3275;DHT22;1649;53.672;10.064;2023-02-15T16:44:39;5.70;99.90
3275;DHT22;1649;53.672;10.064;2023-02-15T16:47:12;5.60;99.90
3275;DHT22;1649;53.672;10.064;2023-02-15T16:49:44;5.60;99.90
3275;DHT22;1649;53.672;10.064;2023-02-15T16:52:15;5.60;99.90
3275;DHT22;1649;53.672;10.064;2023-02-15T16:54:44;5.50;99.90
3275;DHT22;1649;53.672;10.064;2023-02-15T16:57:21;5.40;99.90
3275;DHT22;1649;53.672;10.064;2023-02-15T16:59:49;5.30;99.90
3275;DHT22;1649;53.672;10.064;2023-02-15T17:02:20;5.30;99.90
3275;DHT22;1649;53.672;10.064;2023-02-15T17:05:12;5.20;99.90
3275;DHT22;1649;53.672;10.064;2023-02-15T17:08:03;5.10;99.90
3275;DHT22;1649;53.672;10.064;2023-02-15T17:10:33;5.10;99.90
3275;DHT22;1649;53.672;10.064;2023-02-15T17:13:12;5.10;99.90
3275;DHT22;1649;53.672;10.064;2023-02-15T17:18:23;5.10;99.90
3275;DHT22;1649;53.672;10.064;2023-02-15T17:20:51;5.10;99.90
3275;DHT22;1649;53.672;10.064;2023-02-15T17:23:33;5.10;99.90
3275;DHT22;1649;53.672;10.064;2023-02-15T17:26:02;5.10;99.90
3275;DHT22;1649;53.672;10.064;2023-02-15T17:28:36;5.00;99.90
3275;DHT22;1649;53.672;10.064;2023-02-15T17:31:06;5.00;99.90
3275;DHT22;1649;53.672;10.064;2023-02-15T17:36:19;4.90;99.90
3275;DHT22;1649;53.672;10.064;2023-02-15T17:39:18;4.80;99.90
3275;DHT22;1649;53.672;10.064;2023-02-15T17:41:44;4.70;99.90
3275;DHT22;1649;53.672;10.064;2023-02-15T17:44:09;4.70;99.90
3275;DHT22;1649;53.672;10.064;2023-02-15T17:46:39;4.70;99.90
3275;DHT22;1649;53.672;10.064;2023-02-15T17:49:05;4.60;99.90
3275;DHT22;1649;53.672;10.064;2023-02-15T17:51:32;4.60;99.90
3275;DHT22;1649;53.672;10.064;2023-02-15T17:54:00;4.60;99.90
3275;DHT22;1649;53.672;10.064;2023-02-15T17:56:44;4.60;99.90
3275;DHT22;1649;53.672;10.064;2023-02-15T17:59:10;4.60;99.90
3275;DHT22;1649;53.672;10.064;2023-02-15T18:01:43;4.60;99.90
3275;DHT22;1649;53.672;10.064;2023-02-15T18:04:28;4.60;99.90
3275;DHT22;1649;53.672;10.064;2023-02-15T18:07:12;4.50;99.90
3275;DHT22;1649;53.672;10.064;2023-02-15T18:09:56;4.50;99.90
3275;DHT22;1649;53.672;10.064;2023-02-15T18:12:41;4.50;99.90
3275;DHT22;1649;53.672;10.064;2023-02-15T18:15:09;4.50;99.90
3275;DHT22;1649;53.672;10.064;2023-02-15T18:17:39;4.40;99.90
3275;DHT22;1649;53.672;10.064;2023-02-15T18:22:42;4.30;99.90
3275;DHT22;1649;53.672;10.064;2023-02-15T18:25:16;4.30;99.90
3275;DHT22;1649;53.672;10.064;2023-02-15T18:27:41;4.30;99.90
3275;DHT22;1649;53.672;10.064;2023-02-15T18:30:11;4.30;99.90
3275;DHT22;1649;53.672;10.064;2023-02-15T18:32:38;4.30;99.90
3275;DHT22;1649;53.672;10.064;2023-02-15T18:35:05;4.20;99.90
3275;DHT22;1649;53.672;10.064;2023-02-15T18:37:31;4.20;99.90
3275;DHT22;1649;53.672;10.064;2023-02-15T18:39:58;4.10;99.90
3275;DHT22;1649;53.672;10.064;2023-02-15T18:42:32;4.10;99.90
3275;DHT22;1649;53.672;10.064;2023-02-15T18:45:12;4.10;99.90
3275;DHT22;1649;53.672;10.064;2023-02-15T18:47:38;4.00;99.90
3275;DHT22;1649;53.672;10.064;2023-02-15T18:50:05;4.00;99.90
3275;DHT22;1649;53.672;10.064;2023-02-15T18:52:33;4.00;99.90
3275;DHT22;1649;53.672;10.064;2023-02-15T18:55:02;4.00;99.90
3275;DHT22;1649;53.672;10.064;2023-02-15T18:57:28;4.00;99.90
3275;DHT22;1649;53.672;10.064;2023-02-15T18:59:54;3.90;99.90
3275;DHT22;1649;53.672;10.064;2023-02-15T19:02:20;4.00;99.90
3275;DHT22;1649;53.672;10.064;2023-02-15T19:04:46;3.80;99.90
3275;DHT22;1649;53.672;10.064;2023-02-15T19:07:19;3.80;99.90
3275;DHT22;1649;53.672;10.064;2023-02-15T19:09:48;3.80;99.90
3275;DHT22;1649;53.672;10.064;2023-02-15T19:12:14;3.80;99.90
3275;DHT22;1649;53.672;10.064;2023-02-15T19:14:40;3.70;99.90
3275;DHT22;1649;53.672;10.064;2023-02-15T19:17:15;3.70;99.90
3275;DHT22;1649;53.672;10.064;2023-02-15T19:19:42;3.70;99.90
3275;DHT22;1649;53.672;10.064;2023-02-15T19:22:15;3.70;99.90
3275;DHT22;1649;53.672;10.064;2023-02-15T19:24:43;3.70;99.90
3275;DHT22;1649;53.672;10.064;2023-02-15T19:27:30;3.70;99.90
3275;DHT22;1649;53.672;10.064;2023-02-15T19:29:58;3.70;99.90
3275;DHT22;1649;53.672;10.064;2023-02-15T19:32:24;3.60;99.90